sensor_id;sensor_type;location;lat;lon;timestamp;P1;durP1;ratioP1;P2;durP2;ratioP2
43449;SDS011;29041;42.266;23.110;2023-04-24T00:02:03;6.88;;;5.07;;
43449;SDS011;29041;42.266;23.110;2023-04-24T00:04:52;6.00;;;4.28;;
43449;SDS011;29041;42.266;23.110;2023-04-24T00:07:39;7.72;;;4.50;;
43449;SDS011;29041;42.266;23.110;2023-04-24T00:10:36;8.23;;;4.57;;
43449;SDS011;29041;42.266;23.110;2023-04-24T00:13:23;10.00;;;5.85;;
43449;SDS011;29041;42.266;23.110;2023-04-24T00:16:09;8.70;;;5.25;;
43449;SDS011;29041;42.266;23.110;2023-04-24T00:18:58;6.13;;;4.30;;
43449;SDS011;29041;42.266;23.110;2023-04-24T00:21:46;6.57;;;4.47;;
43449;SDS011;29041;42.266;23.110;2023-04-24T00:24:35;8.10;;;5.07;;
43449;SDS011;29041;42.266;23.110;2023-04-24T00:27:22;6.53;;;3.90;;
43449;SDS011;29041;42.266;23.110;2023-04-24T00:30:09;6.55;;;4.50;;
43449;SDS011;29041;42.266;23.110;2023-04-24T00:32:56;9.52;;;5.03;;
43449;SDS011;29041;42.266;23.110;2023-04-24T00:35:44;8.32;;;4.65;;
43449;SDS011;29041;42.266;23.110;2023-04-24T00:38:31;6.35;;;4.40;;
43449;SDS011;29041;42.266;23.110;2023-04-24T00:41:18;5.40;;;4.47;;
43449;SDS011;29041;42.266;23.110;2023-04-24T00:44:06;8.43;;;4.82;;
43449;SDS011;29041;42.266;23.110;2023-04-24T00:46:53;7.90;;;4.93;;
43449;SDS011;29041;42.266;23.110;2023-04-24T00:49:41;5.22;;;3.92;;
43449;SDS011;29041;42.266;23.110;2023-04-24T00:52:29;6.40;;;4.45;;
43449;SDS011;29041;42.266;23.110;2023-04-24T00:55:17;7.35;;;4.72;;
43449;SDS011;29041;42.266;23.110;2023-04-24T00:58:04;7.88;;;4.85;;
43449;SDS011;29041;42.266;23.110;2023-04-24T01:00:51;8.10;;;4.50;;
43449;SDS011;29041;42.266;23.110;2023-04-24T01:03:39;6.32;;;4.50;;
43449;SDS011;29041;42.266;23.110;2023-04-24T01:06:27;8.68;;;5.35;;
43449;SDS011;29041;42.266;23.110;2023-04-24T01:09:15;7.53;;;5.03;;
43449;SDS011;29041;42.266;23.110;2023-04-24T01:12:03;8.23;;;5.38;;
43449;SDS011;29041;42.266;23.110;2023-04-24T01:14:50;8.07;;;4.40;;
43449;SDS011;29041;42.266;23.110;2023-04-24T01:17:37;6.40;;;4.70;;
43449;SDS011;29041;42.266;23.110;2023-04-24T01:20:25;7.30;;;5.15;;
43449;SDS011;29041;42.266;23.110;2023-04-24T01:23:14;6.53;;;4.47;;
43449;SDS011;29041;42.266;23.110;2023-04-24T01:26:01;8.50;;;5.50;;
43449;SDS011;29041;42.266;23.110;2023-04-24T01:28:48;7.55;;;4.20;;
43449;SDS011;29041;42.266;23.110;2023-04-24T01:31:35;10.40;;;6.05;;
43449;SDS011;29041;42.266;23.110;2023-04-24T01:34:23;9.38;;;4.40;;
43449;SDS011;29041;42.266;23.110;2023-04-24T01:37:10;9.73;;;4.60;;
43449;SDS011;29041;42.266;23.110;2023-04-24T01:39:58;9.05;;;5.22;;
43449;SDS011;29041;42.266;23.110;2023-04-24T01:42:45;8.02;;;5.47;;
43449;SDS011;29041;42.266;23.110;2023-04-24T01:45:32;10.68;;;4.43;;
43449;SDS011;29041;42.266;23.110;2023-04-24T01:48:19;9.30;;;5.03;;
43449;SDS011;29041;42.266;23.110;2023-04-24T01:51:06;8.43;;;5.47;;
43449;SDS011;29041;42.266;23.110;2023-04-24T01:53:53;12.10;;;4.82;;
43449;SDS011;29041;42.266;23.110;2023-04-24T01:56:42;7.65;;;5.07;;
43449;SDS011;29041;42.266;23.110;2023-04-24T01:59:29;7.43;;;4.88;;
43449;SDS011;29041;42.266;23.110;2023-04-24T02:02:16;6.40;;;4.88;;
43449;SDS011;29041;42.266;23.110;2023-04-24T02:05:05;6.75;;;4.40;;
43449;SDS011;29041;42.266;23.110;2023-04-24T02:07:52;6.25;;;4.38;;
43449;SDS011;29041;42.266;23.110;2023-04-24T02:10:39;10.45;;;4.25;;
43449;SDS011;29041;42.266;23.110;2023-04-24T02:13:27;6.40;;;4.28;;
43449;SDS011;29041;42.266;23.110;2023-04-24T02:16:14;6.45;;;4.43;;
43449;SDS011;29041;42.266;23.110;2023-04-24T02:19:01;5.43;;;4.22;;
43449;SDS011;29041;42.266;23.110;2023-04-24T02:21:48;6.47;;;4.95;;
43449;SDS011;29041;42.266;23.110;2023-04-24T02:24:35;8.68;;;4.78;;
43449;SDS011;29041;42.266;23.110;2023-04-24T02:27:21;6.35;;;5.55;;
43449;SDS011;29041;42.266;23.110;2023-04-24T02:30:10;8.35;;;4.65;;
43449;SDS011;29041;42.266;23.110;2023-04-24T02:32:57;7.25;;;5.00;;
43449;SDS011;29041;42.266;23.110;2023-04-24T02:35:44;7.82;;;4.75;;
43449;SDS011;29041;42.266;23.110;2023-04-24T02:38:31;8.65;;;4.53;;
43449;SDS011;29041;42.266;23.110;2023-04-24T02:41:18;9.68;;;5.10;;
43449;SDS011;29041;42.266;23.110;2023-04-24T02:44:05;7.03;;;4.32;;
43449;SDS011;29041;42.266;23.110;2023-04-24T02:46:53;8.85;;;5.25;;
43449;SDS011;29041;42.266;23.110;2023-04-24T02:49:40;8.15;;;5.30;;
43449;SDS011;29041;42.266;23.110;2023-04-24T02:52:27;7.35;;;4.30;;
43449;SDS011;29041;42.266;23.110;2023-04-24T02:55:14;8.60;;;4.75;;
43449;SDS011;29041;42.266;23.110;2023-04-24T02:58:00;6.97;;;4.70;;
43449;SDS011;29041;42.266;23.110;2023-04-24T03:00:47;4.88;;;3.90;;
43449;SDS011;29041;42.266;23.110;2023-04-24T03:03:36;7.60;;;5.00;;
43449;SDS011;29041;42.266;23.110;2023-04-24T03:06:22;8.00;;;5.50;;
43449;SDS011;29041;42.266;23.110;2023-04-24T03:09:09;7.30;;;5.28;;
43449;SDS011;29041;42.266;23.110;2023-04-24T03:11:56;8.98;;;5.82;;
43449;SDS011;29041;42.266;23.110;2023-04-24T03:14:43;7.72;;;5.22;;
43449;SDS011;29041;42.266;23.110;2023-04-24T03:17:30;9.05;;;4.95;;
43449;SDS011;29041;42.266;23.110;2023-04-24T03:20:19;8.02;;;4.90;;
43449;SDS011;29041;42.266;23.110;2023-04-24T03:23:05;6.63;;;5.03;;
43449;SDS011;29041;42.266;23.110;2023-04-24T03:25:52;8.68;;;5.00;;
43449;SDS011;29041;42.266;23.110;2023-04-24T03:28:40;9.95;;;5.53;;
43449;SDS011;29041;42.266;23.110;2023-04-24T03:31:27;7.43;;;4.95;;
43449;SDS011;29041;42.266;23.110;2023-04-24T03:34:14;9.07;;;5.50;;
43449;SDS011;29041;42.266;23.110;2023-04-24T03:37:02;6.93;;;5.15;;
43449;SDS011;29041;42.266;23.110;2023-04-24T03:39:49;9.23;;;5.57;;
43449;SDS011;29041;42.266;23.110;2023-04-24T03:42:35;10.35;;;5.88;;
43449;SDS011;29041;42.266;23.110;2023-04-24T03:45:22;11.07;;;5.38;;
43449;SDS011;29041;42.266;23.110;2023-04-24T03:48:09;9.30;;;5.43;;
43449;SDS011;29041;42.266;23.110;2023-04-24T03:50:56;8.57;;;4.97;;
43449;SDS011;29041;42.266;23.110;2023-04-24T03:53:47;7.32;;;5.55;;
43449;SDS011;29041;42.266;23.110;2023-04-24T03:56:34;8.90;;;5.55;;
43449;SDS011;29041;42.266;23.110;2023-04-24T03:59:20;10.95;;;5.57;;
43449;SDS011;29041;42.266;23.110;2023-04-24T04:02:07;7.82;;;5.78;;
43449;SDS011;29041;42.266;23.110;2023-04-24T04:04:54;18.08;;;6.72;;
43449;SDS011;29041;42.266;23.110;2023-04-24T04:07:41;8.98;;;5.80;;
43449;SDS011;29041;42.266;23.110;2023-04-24T04:10:29;6.97;;;5.72;;
43449;SDS011;29041;42.266;23.110;2023-04-24T04:13:16;8.75;;;5.88;;
43449;SDS011;29041;42.266;23.110;2023-04-24T04:16:03;9.73;;;5.60;;
43449;SDS011;29041;42.266;23.110;2023-04-24T04:18:50;10.18;;;5.93;;
43449;SDS011;29041;42.266;23.110;2023-04-24T04:21:37;10.70;;;6.60;;
43449;SDS011;29041;42.266;23.110;2023-04-24T04:24:24;7.35;;;5.75;;
43449;SDS011;29041;42.266;23.110;2023-04-24T04:27:13;11.32;;;6.45;;
43449;SDS011;29041;42.266;23.110;2023-04-24T04:30:02;9.23;;;6.13;;
43449;SDS011;29041;42.266;23.110;2023-04-24T04:32:50;10.82;;;7.00;;
43449;SDS011;29041;42.266;23.110;2023-04-24T04:35:37;8.90;;;6.57;;
43449;SDS011;29041;42.266;23.110;2023-04-24T04:38:23;7.95;;;6.22;;
43449;SDS011;29041;42.266;23.110;2023-04-24T04:41:12;7.85;;;5.35;;
43449;SDS011;29041;42.266;23.110;2023-04-24T04:44:00;9.20;;;5.57;;
43449;SDS011;29041;42.266;23.110;2023-04-24T04:46:49;9.60;;;6.43;;
43449;SDS011;29041;42.266;23.110;2023-04-24T04:49:38;9.77;;;6.75;;
43449;SDS011;29041;42.266;23.110;2023-04-24T04:52:26;9.70;;;6.97;;
43449;SDS011;29041;42.266;23.110;2023-04-24T04:57:38;9.90;;;5.85;;
43449;SDS011;29041;42.266;23.110;2023-04-24T05:00:27;7.82;;;5.30;;
43449;SDS011;29041;42.266;23.110;2023-04-24T05:03:14;10.55;;;6.78;;
43449;SDS011;29041;42.266;23.110;2023-04-24T05:06:04;9.35;;;6.57;;
43449;SDS011;29041;42.266;23.110;2023-04-24T05:08:53;9.45;;;6.13;;
43449;SDS011;29041;42.266;23.110;2023-04-24T05:11:46;15.25;;;7.03;;
43449;SDS011;29041;42.266;23.110;2023-04-24T05:14:33;11.95;;;6.80;;
43449;SDS011;29041;42.266;23.110;2023-04-24T05:20:29;7.55;;;5.70;;
43449;SDS011;29041;42.266;23.110;2023-04-24T05:23:21;11.63;;;6.22;;
43449;SDS011;29041;42.266;23.110;2023-04-24T05:26:13;7.00;;;4.70;;
43449;SDS011;29041;42.266;23.110;2023-04-24T05:29:00;9.10;;;6.10;;
43449;SDS011;29041;42.266;23.110;2023-04-24T05:31:47;10.05;;;6.25;;
43449;SDS011;29041;42.266;23.110;2023-04-24T05:34:34;9.10;;;5.75;;
43449;SDS011;29041;42.266;23.110;2023-04-24T05:37:23;8.98;;;6.40;;
43449;SDS011;29041;42.266;23.110;2023-04-24T05:40:10;9.90;;;5.57;;
43449;SDS011;29041;42.266;23.110;2023-04-24T05:42:57;9.43;;;6.10;;
43449;SDS011;29041;42.266;23.110;2023-04-24T05:45:44;8.50;;;5.60;;
43449;SDS011;29041;42.266;23.110;2023-04-24T05:48:31;10.38;;;7.03;;
43449;SDS011;29041;42.266;23.110;2023-04-24T05:51:18;7.25;;;5.40;;
43449;SDS011;29041;42.266;23.110;2023-04-24T05:54:06;8.90;;;5.88;;
43449;SDS011;29041;42.266;23.110;2023-04-24T05:56:53;7.13;;;4.68;;
43449;SDS011;29041;42.266;23.110;2023-04-24T05:59:40;5.50;;;3.47;;
43449;SDS011;29041;42.266;23.110;2023-04-24T06:02:31;6.88;;;3.63;;
43449;SDS011;29041;42.266;23.110;2023-04-24T06:05:20;5.68;;;4.35;;
43449;SDS011;29041;42.266;23.110;2023-04-24T06:08:16;7.15;;;3.90;;
43449;SDS011;29041;42.266;23.110;2023-04-24T06:14:23;5.03;;;3.75;;
43449;SDS011;29041;42.266;23.110;2023-04-24T06:17:30;5.70;;;3.83;;
43449;SDS011;29041;42.266;23.110;2023-04-24T06:20:20;5.57;;;3.90;;
43449;SDS011;29041;42.266;23.110;2023-04-24T06:23:13;11.05;;;5.30;;
43449;SDS011;29041;42.266;23.110;2023-04-24T06:28:37;4.85;;;3.55;;
43449;SDS011;29041;42.266;23.110;2023-04-24T06:31:40;6.60;;;4.57;;
43449;SDS011;29041;42.266;23.110;2023-04-24T06:37:18;6.40;;;4.60;;
43449;SDS011;29041;42.266;23.110;2023-04-24T06:40:44;5.57;;;2.50;;
43449;SDS011;29041;42.266;23.110;2023-04-24T06:44:04;2.55;;;2.08;;
43449;SDS011;29041;42.266;23.110;2023-04-24T07:02:25;4.22;;;3.00;;
43449;SDS011;29041;42.266;23.110;2023-04-24T07:21:25;3.30;;;2.47;;
43449;SDS011;29041;42.266;23.110;2023-04-24T07:24:12;3.33;;;2.60;;
43449;SDS011;29041;42.266;23.110;2023-04-24T07:26:59;3.28;;;2.67;;
43449;SDS011;29041;42.266;23.110;2023-04-24T07:29:46;3.45;;;3.03;;
43449;SDS011;29041;42.266;23.110;2023-04-24T07:32:33;3.38;;;2.30;;
43449;SDS011;29041;42.266;23.110;2023-04-24T07:35:20;3.83;;;2.75;;
43449;SDS011;29041;42.266;23.110;2023-04-24T07:38:08;4.20;;;2.65;;
43449;SDS011;29041;42.266;23.110;2023-04-24T07:40:55;3.75;;;2.25;;
43449;SDS011;29041;42.266;23.110;2023-04-24T07:43:42;2.72;;;2.50;;
43449;SDS011;29041;42.266;23.110;2023-04-24T07:46:29;3.15;;;2.50;;
43449;SDS011;29041;42.266;23.110;2023-04-24T07:49:16;2.65;;;1.95;;
43449;SDS011;29041;42.266;23.110;2023-04-24T07:52:03;2.28;;;1.80;;
43449;SDS011;29041;42.266;23.110;2023-04-24T07:54:52;2.10;;;1.25;;
43449;SDS011;29041;42.266;23.110;2023-04-24T07:57:43;4.72;;;2.33;;
43449;SDS011;29041;42.266;23.110;2023-04-24T08:00:30;4.78;;;2.53;;
43449;SDS011;29041;42.266;23.110;2023-04-24T08:03:17;3.35;;;2.30;;
43449;SDS011;29041;42.266;23.110;2023-04-24T08:06:05;2.85;;;2.10;;
43449;SDS011;29041;42.266;23.110;2023-04-24T08:08:52;6.07;;;1.60;;
43449;SDS011;29041;42.266;23.110;2023-04-24T08:11:40;4.72;;;2.15;;
43449;SDS011;29041;42.266;23.110;2023-04-24T08:14:27;2.00;;;1.80;;
43449;SDS011;29041;42.266;23.110;2023-04-24T08:17:14;2.20;;;1.80;;
43449;SDS011;29041;42.266;23.110;2023-04-24T08:20:01;2.28;;;1.98;;
43449;SDS011;29041;42.266;23.110;2023-04-24T08:22:49;2.25;;;1.60;;
43449;SDS011;29041;42.266;23.110;2023-04-24T08:25:36;3.03;;;2.33;;
43449;SDS011;29041;42.266;23.110;2023-04-24T08:28:24;2.17;;;1.98;;
43449;SDS011;29041;42.266;23.110;2023-04-24T08:31:11;2.75;;;1.90;;
43449;SDS011;29041;42.266;23.110;2023-04-24T08:33:58;7.10;;;2.50;;
43449;SDS011;29041;42.266;23.110;2023-04-24T08:36:45;4.47;;;2.15;;
43449;SDS011;29041;42.266;23.110;2023-04-24T08:39:37;2.33;;;2.05;;
43449;SDS011;29041;42.266;23.110;2023-04-24T08:42:24;3.13;;;1.70;;
43449;SDS011;29041;42.266;23.110;2023-04-24T08:45:13;6.75;;;2.25;;
43449;SDS011;29041;42.266;23.110;2023-04-24T08:48:00;2.42;;;2.22;;
43449;SDS011;29041;42.266;23.110;2023-04-24T08:50:47;6.65;;;2.25;;
43449;SDS011;29041;42.266;23.110;2023-04-24T08:53:34;2.15;;;1.80;;
43449;SDS011;29041;42.266;23.110;2023-04-24T08:56:21;4.80;;;1.90;;
43449;SDS011;29041;42.266;23.110;2023-04-24T08:59:08;2.45;;;1.85;;
43449;SDS011;29041;42.266;23.110;2023-04-24T09:01:57;3.80;;;2.25;;
43449;SDS011;29041;42.266;23.110;2023-04-24T09:04:44;2.40;;;1.90;;
43449;SDS011;29041;42.266;23.110;2023-04-24T09:07:32;6.55;;;2.47;;
43449;SDS011;29041;42.266;23.110;2023-04-24T09:10:22;3.60;;;2.40;;
43449;SDS011;29041;42.266;23.110;2023-04-24T09:13:10;2.38;;;2.10;;
43449;SDS011;29041;42.266;23.110;2023-04-24T09:15:57;2.90;;;2.30;;
43449;SDS011;29041;42.266;23.110;2023-04-24T09:18:47;2.50;;;1.65;;
43449;SDS011;29041;42.266;23.110;2023-04-24T09:21:34;4.82;;;2.28;;
43449;SDS011;29041;42.266;23.110;2023-04-24T09:24:21;3.75;;;2.03;;
43449;SDS011;29041;42.266;23.110;2023-04-24T09:27:10;1.70;;;1.60;;
43449;SDS011;29041;42.266;23.110;2023-04-24T09:29:58;2.17;;;1.98;;
43449;SDS011;29041;42.266;23.110;2023-04-24T09:32:45;2.28;;;2.08;;
43449;SDS011;29041;42.266;23.110;2023-04-24T09:35:33;1.80;;;1.50;;
43449;SDS011;29041;42.266;23.110;2023-04-24T09:38:22;1.70;;;1.60;;
43449;SDS011;29041;42.266;23.110;2023-04-24T09:41:16;3.88;;;2.05;;
43449;SDS011;29041;42.266;23.110;2023-04-24T09:44:10;1.77;;;1.33;;
43449;SDS011;29041;42.266;23.110;2023-04-24T09:46:58;3.08;;;1.65;;
43449;SDS011;29041;42.266;23.110;2023-04-24T09:49:45;2.35;;;1.50;;
43449;SDS011;29041;42.266;23.110;2023-04-24T09:52:34;2.35;;;1.50;;
43449;SDS011;29041;42.266;23.110;2023-04-24T09:55:21;1.67;;;1.58;;
43449;SDS011;29041;42.266;23.110;2023-04-24T09:58:08;2.13;;;1.58;;
43449;SDS011;29041;42.266;23.110;2023-04-24T10:04:14;3.08;;;1.60;;
43449;SDS011;29041;42.266;23.110;2023-04-24T10:07:02;2.22;;;1.60;;
43449;SDS011;29041;42.266;23.110;2023-04-24T10:09:53;1.83;;;1.35;;
43449;SDS011;29041;42.266;23.110;2023-04-24T10:12:40;3.30;;;1.95;;
43449;SDS011;29041;42.266;23.110;2023-04-24T10:15:28;1.52;;;1.40;;
43449;SDS011;29041;42.266;23.110;2023-04-24T10:18:15;2.45;;;1.80;;
43449;SDS011;29041;42.266;23.110;2023-04-24T10:21:02;6.32;;;3.25;;
43449;SDS011;29041;42.266;23.110;2023-04-24T10:23:49;2.85;;;2.25;;
43449;SDS011;29041;42.266;23.110;2023-04-24T10:26:38;1.65;;;1.38;;
43449;SDS011;29041;42.266;23.110;2023-04-24T10:29:26;2.88;;;1.92;;
43449;SDS011;29041;42.266;23.110;2023-04-24T10:32:14;2.20;;;1.40;;
43449;SDS011;29041;42.266;23.110;2023-04-24T10:35:01;2.10;;;1.95;;
43449;SDS011;29041;42.266;23.110;2023-04-24T10:37:48;3.35;;;1.70;;
43449;SDS011;29041;42.266;23.110;2023-04-24T10:40:36;1.95;;;1.58;;
43449;SDS011;29041;42.266;23.110;2023-04-24T10:43:25;1.92;;;1.42;;
43449;SDS011;29041;42.266;23.110;2023-04-24T10:46:16;6.88;;;1.95;;
43449;SDS011;29041;42.266;23.110;2023-04-24T10:49:06;4.72;;;1.63;;
43449;SDS011;29041;42.266;23.110;2023-04-24T10:51:54;4.18;;;1.90;;
43449;SDS011;29041;42.266;23.110;2023-04-24T10:54:46;3.47;;;1.70;;
43449;SDS011;29041;42.266;23.110;2023-04-24T10:57:34;2.25;;;1.67;;
43449;SDS011;29041;42.266;23.110;2023-04-24T11:00:24;1.88;;;1.65;;
43449;SDS011;29041;42.266;23.110;2023-04-24T11:03:22;3.17;;;1.80;;
43449;SDS011;29041;42.266;23.110;2023-04-24T11:06:10;3.95;;;1.50;;
43449;SDS011;29041;42.266;23.110;2023-04-24T11:09:02;1.77;;;1.67;;
43449;SDS011;29041;42.266;23.110;2023-04-24T11:11:49;4.57;;;2.20;;
43449;SDS011;29041;42.266;23.110;2023-04-24T11:17:46;4.18;;;1.58;;
43449;SDS011;29041;42.266;23.110;2023-04-24T11:20:33;3.10;;;2.13;;
43449;SDS011;29041;42.266;23.110;2023-04-24T11:23:20;20.15;;;1.88;;
43449;SDS011;29041;42.266;23.110;2023-04-24T11:26:11;2.58;;;1.85;;
43449;SDS011;29041;42.266;23.110;2023-04-24T11:29:05;2.15;;;1.33;;
43449;SDS011;29041;42.266;23.110;2023-04-24T11:31:53;1.98;;;1.33;;
43449;SDS011;29041;42.266;23.110;2023-04-24T11:34:41;6.03;;;2.80;;
43449;SDS011;29041;42.266;23.110;2023-04-24T11:37:33;1.70;;;1.33;;
43449;SDS011;29041;42.266;23.110;2023-04-24T11:40:21;2.08;;;1.77;;
43449;SDS011;29041;42.266;23.110;2023-04-24T11:43:09;2.42;;;2.03;;
43449;SDS011;29041;42.266;23.110;2023-04-24T11:45:59;1.63;;;1.52;;
43449;SDS011;29041;42.266;23.110;2023-04-24T11:48:46;1.92;;;1.45;;
43449;SDS011;29041;42.266;23.110;2023-04-24T11:51:34;2.15;;;1.98;;
43449;SDS011;29041;42.266;23.110;2023-04-24T11:54:21;2.72;;;1.30;;
43449;SDS011;29041;42.266;23.110;2023-04-24T11:57:08;2.08;;;1.85;;
43449;SDS011;29041;42.266;23.110;2023-04-24T11:59:55;1.65;;;1.42;;
43449;SDS011;29041;42.266;23.110;2023-04-24T12:02:42;1.90;;;1.63;;
43449;SDS011;29041;42.266;23.110;2023-04-24T12:05:29;2.05;;;1.50;;
43449;SDS011;29041;42.266;23.110;2023-04-24T12:08:28;3.53;;;1.83;;
43449;SDS011;29041;42.266;23.110;2023-04-24T12:11:15;2.75;;;1.98;;
43449;SDS011;29041;42.266;23.110;2023-04-24T12:14:09;3.83;;;1.48;;
43449;SDS011;29041;42.266;23.110;2023-04-24T12:16:56;3.58;;;2.00;;
43449;SDS011;29041;42.266;23.110;2023-04-24T12:19:47;2.40;;;1.75;;
43449;SDS011;29041;42.266;23.110;2023-04-24T12:22:44;3.92;;;1.98;;
43449;SDS011;29041;42.266;23.110;2023-04-24T12:25:33;3.10;;;2.20;;
43449;SDS011;29041;42.266;23.110;2023-04-24T12:28:20;3.67;;;1.60;;
43449;SDS011;29041;42.266;23.110;2023-04-24T12:31:07;2.88;;;2.05;;
43449;SDS011;29041;42.266;23.110;2023-04-24T12:33:54;4.45;;;2.30;;
43449;SDS011;29041;42.266;23.110;2023-04-24T12:36:41;3.00;;;1.67;;
43449;SDS011;29041;42.266;23.110;2023-04-24T12:39:28;3.42;;;1.88;;
43449;SDS011;29041;42.266;23.110;2023-04-24T12:42:16;2.00;;;1.15;;
43449;SDS011;29041;42.266;23.110;2023-04-24T12:45:12;1.70;;;1.45;;
43449;SDS011;29041;42.266;23.110;2023-04-24T12:47:59;2.95;;;1.75;;
43449;SDS011;29041;42.266;23.110;2023-04-24T12:50:46;2.00;;;1.45;;
43449;SDS011;29041;42.266;23.110;2023-04-24T12:53:33;1.50;;;1.40;;
43449;SDS011;29041;42.266;23.110;2023-04-24T12:56:20;2.03;;;1.55;;
43449;SDS011;29041;42.266;23.110;2023-04-24T12:59:08;1.90;;;1.63;;
43449;SDS011;29041;42.266;23.110;2023-04-24T13:01:55;3.20;;;1.23;;
43449;SDS011;29041;42.266;23.110;2023-04-24T13:04:43;1.70;;;1.30;;
43449;SDS011;29041;42.266;23.110;2023-04-24T13:07:30;3.13;;;1.45;;
43449;SDS011;29041;42.266;23.110;2023-04-24T13:10:17;3.97;;;2.15;;
43449;SDS011;29041;42.266;23.110;2023-04-24T13:13:04;1.83;;;1.65;;
43449;SDS011;29041;42.266;23.110;2023-04-24T13:15:52;1.95;;;1.33;;
43449;SDS011;29041;42.266;23.110;2023-04-24T13:18:39;2.45;;;1.30;;
43449;SDS011;29041;42.266;23.110;2023-04-24T13:21:26;3.95;;;2.38;;
43449;SDS011;29041;42.266;23.110;2023-04-24T13:24:13;1.90;;;1.45;;
43449;SDS011;29041;42.266;23.110;2023-04-24T13:27:01;1.90;;;1.60;;
43449;SDS011;29041;42.266;23.110;2023-04-24T13:29:58;3.28;;;1.90;;
43449;SDS011;29041;42.266;23.110;2023-04-24T13:32:46;2.35;;;2.05;;
43449;SDS011;29041;42.266;23.110;2023-04-24T13:35:33;2.90;;;1.58;;
43449;SDS011;29041;42.266;23.110;2023-04-24T13:38:20;3.05;;;1.88;;
43449;SDS011;29041;42.266;23.110;2023-04-24T13:41:08;2.35;;;1.15;;
43449;SDS011;29041;42.266;23.110;2023-04-24T13:43:55;6.65;;;1.83;;
43449;SDS011;29041;42.266;23.110;2023-04-24T13:46:42;2.85;;;1.67;;
43449;SDS011;29041;42.266;23.110;2023-04-24T13:49:31;2.10;;;1.90;;
43449;SDS011;29041;42.266;23.110;2023-04-24T13:52:18;2.75;;;1.50;;
43449;SDS011;29041;42.266;23.110;2023-04-24T13:55:06;1.88;;;1.65;;
43449;SDS011;29041;42.266;23.110;2023-04-24T13:57:53;2.08;;;1.55;;
43449;SDS011;29041;42.266;23.110;2023-04-24T14:00:40;2.22;;;1.27;;
43449;SDS011;29041;42.266;23.110;2023-04-24T14:03:27;2.08;;;1.88;;
43449;SDS011;29041;42.266;23.110;2023-04-24T14:06:15;3.42;;;1.75;;
43449;SDS011;29041;42.266;23.110;2023-04-24T14:09:02;3.70;;;1.33;;
43449;SDS011;29041;42.266;23.110;2023-04-24T14:11:49;2.17;;;1.55;;
43449;SDS011;29041;42.266;23.110;2023-04-24T14:14:36;3.78;;;1.83;;
43449;SDS011;29041;42.266;23.110;2023-04-24T14:17:23;2.30;;;2.05;;
43449;SDS011;29041;42.266;23.110;2023-04-24T14:20:11;1.67;;;1.55;;
43449;SDS011;29041;42.266;23.110;2023-04-24T14:23:00;3.85;;;1.90;;
43449;SDS011;29041;42.266;23.110;2023-04-24T14:25:47;3.30;;;2.20;;
43449;SDS011;29041;42.266;23.110;2023-04-24T14:28:37;3.38;;;2.70;;
43449;SDS011;29041;42.266;23.110;2023-04-24T14:31:24;1.65;;;1.55;;
43449;SDS011;29041;42.266;23.110;2023-04-24T14:34:10;2.70;;;2.15;;
43449;SDS011;29041;42.266;23.110;2023-04-24T14:36:58;4.57;;;1.85;;
43449;SDS011;29041;42.266;23.110;2023-04-24T14:39:46;3.92;;;1.95;;
43449;SDS011;29041;42.266;23.110;2023-04-24T14:42:33;3.75;;;1.80;;
43449;SDS011;29041;42.266;23.110;2023-04-24T14:45:20;2.15;;;1.92;;
43449;SDS011;29041;42.266;23.110;2023-04-24T14:48:07;2.47;;;1.90;;
43449;SDS011;29041;42.266;23.110;2023-04-24T14:50:54;2.63;;;1.95;;
43449;SDS011;29041;42.266;23.110;2023-04-24T14:53:41;2.25;;;1.90;;
43449;SDS011;29041;42.266;23.110;2023-04-24T14:56:29;3.05;;;2.60;;
43449;SDS011;29041;42.266;23.110;2023-04-24T14:59:16;2.45;;;1.80;;
43449;SDS011;29041;42.266;23.110;2023-04-24T15:02:03;2.00;;;1.42;;
43449;SDS011;29041;42.266;23.110;2023-04-24T15:04:50;3.67;;;1.90;;
43449;SDS011;29041;42.266;23.110;2023-04-24T15:07:37;3.55;;;2.72;;
43449;SDS011;29041;42.266;23.110;2023-04-24T15:10:29;3.45;;;1.95;;
43449;SDS011;29041;42.266;23.110;2023-04-24T15:13:17;3.42;;;1.65;;
43449;SDS011;29041;42.266;23.110;2023-04-24T15:16:04;3.78;;;1.65;;
43449;SDS011;29041;42.266;23.110;2023-04-24T15:18:51;2.22;;;1.90;;
43449;SDS011;29041;42.266;23.110;2023-04-24T15:21:38;2.05;;;1.67;;
43449;SDS011;29041;42.266;23.110;2023-04-24T15:24:26;2.63;;;1.63;;
43449;SDS011;29041;42.266;23.110;2023-04-24T15:27:13;5.97;;;1.27;;
43449;SDS011;29041;42.266;23.110;2023-04-24T15:30:02;3.83;;;1.80;;
43449;SDS011;29041;42.266;23.110;2023-04-24T15:32:49;6.63;;;2.20;;
43449;SDS011;29041;42.266;23.110;2023-04-24T15:35:36;2.97;;;2.00;;
43449;SDS011;29041;42.266;23.110;2023-04-24T15:38:23;3.10;;;2.00;;
43449;SDS011;29041;42.266;23.110;2023-04-24T15:41:10;5.65;;;1.88;;
43449;SDS011;29041;42.266;23.110;2023-04-24T15:43:57;1.70;;;1.60;;
43449;SDS011;29041;42.266;23.110;2023-04-24T15:46:45;2.65;;;2.05;;
43449;SDS011;29041;42.266;23.110;2023-04-24T15:49:32;2.40;;;1.58;;
43449;SDS011;29041;42.266;23.110;2023-04-24T15:52:19;4.13;;;2.20;;
43449;SDS011;29041;42.266;23.110;2023-04-24T15:55:06;2.40;;;1.70;;
43449;SDS011;29041;42.266;23.110;2023-04-24T15:57:54;3.70;;;1.80;;
43449;SDS011;29041;42.266;23.110;2023-04-24T16:00:41;3.17;;;2.40;;
43449;SDS011;29041;42.266;23.110;2023-04-24T16:03:29;2.83;;;1.92;;
43449;SDS011;29041;42.266;23.110;2023-04-24T16:06:16;2.45;;;2.03;;
43449;SDS011;29041;42.266;23.110;2023-04-24T16:09:04;2.63;;;1.90;;
43449;SDS011;29041;42.266;23.110;2023-04-24T16:11:50;3.85;;;2.20;;
43449;SDS011;29041;42.266;23.110;2023-04-24T16:14:38;5.82;;;2.03;;
43449;SDS011;29041;42.266;23.110;2023-04-24T16:17:25;3.50;;;1.73;;
43449;SDS011;29041;42.266;23.110;2023-04-24T16:20:13;2.30;;;1.70;;
43449;SDS011;29041;42.266;23.110;2023-04-24T16:23:00;5.13;;;2.30;;
43449;SDS011;29041;42.266;23.110;2023-04-24T16:25:47;3.70;;;1.95;;
43449;SDS011;29041;42.266;23.110;2023-04-24T16:28:34;3.75;;;2.53;;
43449;SDS011;29041;42.266;23.110;2023-04-24T16:31:20;4.43;;;1.83;;
43449;SDS011;29041;42.266;23.110;2023-04-24T16:34:07;2.95;;;2.65;;
43449;SDS011;29041;42.266;23.110;2023-04-24T16:36:58;2.20;;;1.75;;
43449;SDS011;29041;42.266;23.110;2023-04-24T16:39:50;3.60;;;1.70;;
43449;SDS011;29041;42.266;23.110;2023-04-24T16:42:39;2.30;;;1.77;;
43449;SDS011;29041;42.266;23.110;2023-04-24T16:45:26;2.92;;;1.80;;
43449;SDS011;29041;42.266;23.110;2023-04-24T16:48:13;3.72;;;2.38;;
43449;SDS011;29041;42.266;23.110;2023-04-24T16:51:02;5.68;;;2.45;;
43449;SDS011;29041;42.266;23.110;2023-04-24T16:53:51;4.40;;;3.08;;
43449;SDS011;29041;42.266;23.110;2023-04-24T16:56:39;2.40;;;2.08;;
43449;SDS011;29041;42.266;23.110;2023-04-24T16:59:26;2.58;;;2.20;;
43449;SDS011;29041;42.266;23.110;2023-04-24T17:02:13;3.17;;;2.17;;
43449;SDS011;29041;42.266;23.110;2023-04-24T17:38:17;8.18;;;2.75;;
43449;SDS011;29041;42.266;23.110;2023-04-24T17:41:21;5.82;;;2.42;;
43449;SDS011;29041;42.266;23.110;2023-04-24T17:44:16;6.75;;;3.72;;
43449;SDS011;29041;42.266;23.110;2023-04-24T17:47:38;6.88;;;2.53;;
43449;SDS011;29041;42.266;23.110;2023-04-24T18:29:46;3.60;;;2.03;;
43449;SDS011;29041;42.266;23.110;2023-04-24T18:50:40;23.75;;;11.07;;
43449;SDS011;29041;42.266;23.110;2023-04-24T18:53:32;4.40;;;2.50;;
43449;SDS011;29041;42.266;23.110;2023-04-24T18:56:19;6.00;;;3.17;;
43449;SDS011;29041;42.266;23.110;2023-04-24T18:59:06;2.97;;;1.40;;
43449;SDS011;29041;42.266;23.110;2023-04-24T19:01:53;5.72;;;1.42;;